Time;durP1;ratioP1;P1;durP2;ratioP2;P2;SDS_P1;SDS_P2;PMS_P1;PMS_P2;Temp;Humidity;BMP_temperature;BMP_pressure;BME280_temperature;BME280_humidity;BME280_pressure;Samples;Min_cycle;Max_cycle;Signal;HPM_P1;HPM_P2
2023/03/24 00:00:28;;;;;;;4.90;4.40;;;17.00;31.00;;;;;;10464457;28;20304;-73
2023/03/24 00:05:31;;;;;;;4.60;4.20;;;16.90;31.10;;;;;;10466639;28;20227;-72
2023/03/24 00:10:35;;;;;;;3.87;3.57;;;16.90;31.00;;;;;;10470080;28;20739;-73
2023/03/24 00:15:40;;;;;;;4.20;3.80;;;16.90;30.90;;;;;;10462557;28;20637;-73
2023/03/24 00:20:44;;;;;;;3.40;3.20;;;16.90;31.10;;;;;;10469357;28;20220;-73
2023/03/24 00:25:48;;;;;;;3.73;3.27;;;16.90;31.10;;;;;;10461389;28;20290;-73
2023/03/24 00:30:53;;;;;;;3.93;3.63;;;16.90;31.00;;;;;;10468851;28;20655;-73
2023/03/24 00:35:57;;;;;;;3.40;3.10;;;16.90;31.10;;;;;;10461864;28;20221;-73
2023/03/24 00:41:01;;;;;;;3.97;3.57;;;16.90;30.90;;;;;;10468026;28;20223;-80
2023/03/24 00:46:09;;;;;;;2.93;2.73;;;16.90;30.90;;;;;;10458942;28;20233;-79
2023/03/24 00:51:13;;;;;;;3.60;3.30;;;16.80;31.20;;;;;;10466633;28;20290;-79
2023/03/24 00:56:16;;;;;;;3.77;3.47;;;16.80;31.70;;;;;;10460552;28;20689;-79
2023/03/24 01:01:21;;;;;;;3.60;3.30;;;16.70;31.00;;;;;;10463959;28;20631;-79
2023/03/24 01:06:24;;;;;;;4.03;3.33;;;16.70;31.10;;;;;;10463477;28;20735;-79
2023/03/24 01:11:28;;;;;;;4.13;3.73;;;16.70;31.10;;;;;;10469431;28;20229;-81
2023/03/24 01:16:33;;;;;;;4.10;3.60;;;16.60;31.90;;;;;;10467593;28;20231;-79
2023/03/24 01:21:37;;;;;;;3.80;3.50;;;16.50;31.50;;;;;;10461400;28;20298;-76
2023/03/24 01:26:40;;;;;;;4.20;3.80;;;16.40;31.50;;;;;;10463557;28;20596;-75
2023/03/24 01:31:45;;;;;;;4.20;3.73;;;16.30;31.60;;;;;;10456105;28;20240;-75
2023/03/24 01:36:48;;;;;;;3.30;3.10;;;16.30;32.80;;;;;;10460469;28;20315;-75
2023/03/24 01:41:52;;;;;;;4.00;3.70;;;16.30;31.90;;;;;;10469303;28;20221;-75
2023/03/24 01:46:57;;;;;;;4.43;3.87;;;16.20;31.90;;;;;;10464035;28;20282;-75
2023/03/24 01:52:05;;;;;;;3.47;3.13;;;16.20;32.50;;;;;;10459302;28;20225;-75
2023/03/24 01:57:12;;;;;;;4.13;3.40;;;16.30;32.60;;;;;;10465981;28;20303;-75
2023/03/24 02:02:20;;;;;;;3.97;3.67;;;16.30;32.60;;;;;;10464391;28;20235;-75
2023/03/24 02:07:32;;;;;;;3.73;3.33;;;16.40;32.50;;;;;;10453879;28;20307;-74
2023/03/24 02:12:36;;;;;;;3.50;3.20;;;16.40;33.40;;;;;;10473736;28;20259;-74
2023/03/24 02:18:04;;;;;;;3.77;3.27;;;16.40;32.80;;;;;;10468025;28;20220;-75
2023/03/24 02:23:42;;;;;;;3.50;3.20;;;16.30;33.30;;;;;;10471071;28;20318;-75
2023/03/24 02:28:59;;;;;;;3.73;3.43;;;16.20;33.80;;;;;;10459153;28;20272;-75
2023/03/24 02:34:56;;;;;;;3.70;3.40;;;16.20;33.70;;;;;;10467583;28;20255;-75
2023/03/24 02:40:10;;;;;;;3.67;3.03;;;16.20;33.20;;;;;;10469340;28;20241;-75
2023/03/24 02:45:23;;;;;;;4.10;3.60;;;16.20;34.10;;;;;;10474368;28;20607;-77
2023/03/24 02:50:32;;;;;;;3.60;3.30;;;16.20;34.40;;;;;;10476131;28;20727;-77
2023/03/24 02:55:44;;;;;;;3.70;3.40;;;16.20;34.10;;;;;;10478739;28;20229;-77
2023/03/24 03:00:52;;;;;;;3.50;3.20;;;16.10;34.40;;;;;;10481116;28;20270;-77
2023/03/24 03:05:59;;;;;;;3.23;3.03;;;16.10;33.90;;;;;;10481320;28;20235;-77
2023/03/24 03:11:06;;;;;;;4.47;3.67;;;16.00;33.90;;;;;;10468803;28;20224;-76
2023/03/24 03:16:15;;;;;;;3.50;3.20;;;16.00;34.50;;;;;;10474304;28;20231;-78
2023/03/24 03:21:33;;;;;;;3.63;3.30;;;16.00;34.70;;;;;;10478247;28;20217;-77
2023/03/24 03:26:38;;;;;;;4.23;3.60;;;16.00;35.10;;;;;;10476823;28;20648;-77
2023/03/24 03:31:49;;;;;;;4.80;3.50;;;16.00;34.40;;;;;;10482257;28;20228;-76
2023/03/24 03:36:57;;;;;;;3.83;3.57;;;16.00;34.00;;;;;;10482003;28;20239;-77
2023/03/24 03:42:03;;;;;;;3.27;2.97;;;16.00;34.30;;;;;;10474665;28;20225;-77
2023/03/24 03:47:08;;;;;;;3.73;3.43;;;16.00;34.10;;;;;;10473140;28;20236;-77
2023/03/24 03:52:11;;;;;;;3.37;3.07;;;16.00;34.00;;;;;;10476389;28;20731;-77
2023/03/24 03:57:16;;;;;;;3.70;3.40;;;16.10;33.80;;;;;;10475104;28;20223;-78
2023/03/24 04:02:34;;;;;;;3.80;3.40;;;16.20;34.40;;;;;;10478760;28;20563;-77
2023/03/24 04:07:47;;;;;;;3.50;3.20;;;16.20;35.00;;;;;;10476197;28;20873;-77
2023/03/24 04:13:06;;;;;;;3.63;3.33;;;16.30;35.00;;;;;;10478053;28;20231;-78
2023/03/24 04:18:41;;;;;;;3.20;2.90;;;16.20;34.40;;;;;;10474036;28;20221;-77
2023/03/24 04:23:54;;;;;;;3.30;3.00;;;16.10;33.90;;;;;;10475806;28;20247;-77
2023/03/24 04:29:07;;;;;;;3.10;2.90;;;16.00;33.90;;;;;;10478461;28;20240;-77
2023/03/24 04:34:20;;;;;;;3.50;2.70;;;16.00;34.10;;;;;;10471703;28;20339;-77
2023/03/24 04:39:27;;;;;;;3.40;3.10;;;16.00;34.20;;;;;;10479003;28;20610;-77
2023/03/24 04:44:33;;;;;;;3.10;2.90;;;16.00;33.70;;;;;;10473999;28;20235;-77
2023/03/24 04:49:38;;;;;;;3.43;3.23;;;16.00;33.70;;;;;;10463631;28;20735;-76
2023/03/24 04:54:41;;;;;;;3.30;3.00;;;16.00;33.60;;;;;;10474438;28;20330;-78
2023/03/24 04:59:46;;;;;;;3.53;3.03;;;16.00;33.50;;;;;;10477973;28;20737;-79
2023/03/24 05:04:49;;;;;;;3.30;3.00;;;16.00;33.80;;;;;;10491580;22;20738;-73
2023/03/24 05:09:52;;;;;;;2.97;2.77;;;16.00;33.70;;;;;;10480875;28;20683;-72
2023/03/24 05:14:57;;;;;;;3.80;3.50;;;16.00;33.50;;;;;;10485495;28;20962;-73
2023/03/24 05:20:00;;;;;;;3.03;2.70;;;16.00;34.10;;;;;;10483234;28;20233;-73
2023/03/24 05:25:04;;;;;;;3.40;2.90;;;16.00;33.90;;;;;;10452390;28;20229;-72
2023/03/24 05:30:10;;;;;;;3.67;3.30;;;16.00;34.00;;;;;;10448222;28;20232;-72
2023/03/24 05:35:13;;;;;;;3.77;3.47;;;16.00;34.70;;;;;;10448682;28;20225;-72
2023/03/24 05:40:17;;;;;;;4.60;4.20;;;16.00;34.40;;;;;;10466664;28;20268;-70
2023/03/24 05:45:21;;;;;;;4.00;3.60;;;15.90;34.50;;;;;;10478781;28;20926;-71
2023/03/24 05:50:25;;;;;;;5.20;4.40;;;15.90;34.90;;;;;;10468538;28;20676;-71
2023/03/24 05:55:29;;;;;;;4.07;3.70;;;15.90;34.70;;;;;;10458722;28;20254;-75
2023/03/24 06:00:33;;;;;;;4.37;3.80;;;15.90;34.80;;;;;;10457638;28;20607;-71
2023/03/24 06:05:37;;;;;;;3.80;3.50;;;15.70;35.40;;;;;;10457594;28;20220;-71
2023/03/24 06:10:40;;;;;;;3.77;3.43;;;15.70;35.40;;;;;;10474228;22;20346;-70
2023/03/24 06:15:45;;;;;;;4.03;3.70;;;15.50;35.50;;;;;;10446056;28;20225;-71
2023/03/24 06:20:55;;;;;;;6.40;3.70;;;15.50;36.30;;;;;;10436824;28;20260;-73
2023/03/24 06:26:00;;;;;;;6.17;3.97;;;15.40;36.20;;;;;;10454663;28;20311;-70
2023/03/24 06:31:13;;;;;;;5.47;4.23;;;15.30;36.20;;;;;;10465241;28;20224;-70
2023/03/24 06:36:17;;;;;;;5.30;4.10;;;15.20;37.40;;;;;;10459171;28;20221;-70
2023/03/24 06:41:21;;;;;;;4.67;4.27;;;15.30;36.70;;;;;;10447277;28;20225;-70
2023/03/24 06:46:25;;;;;;;4.03;3.73;;;15.30;36.70;;;;;;10447764;28;20233;-70
2023/03/24 06:51:29;;;;;;;3.90;3.60;;;15.30;37.40;;;;;;10453832;28;20330;-70
2023/03/24 06:56:33;;;;;;;4.27;3.77;;;15.30;37.10;;;;;;10469398;28;20776;-70
2023/03/24 07:01:38;;;;;;;3.93;3.63;;;15.20;37.20;;;;;;10465576;28;20243;-70
2023/03/24 07:06:42;;;;;;;12.87;10.57;;;15.40;37.60;;;;;;10458121;28;20238;-70
2023/03/24 07:12:06;;;;;;;6.67;4.57;;;15.40;37.10;;;;;;10467955;28;20240;-70
2023/03/24 07:17:11;;;;;;;6.10;5.50;;;15.40;37.40;;;;;;10470944;28;20228;-70
2023/03/24 07:22:14;;;;;;;5.67;4.30;;;15.40;37.80;;;;;;10466269;28;20599;-70
2023/03/24 07:27:17;;;;;;;4.23;3.83;;;15.40;37.60;;;;;;10453861;28;20235;-70
2023/03/24 07:32:22;;;;;;;5.03;4.37;;;15.50;37.70;;;;;;10459974;28;20243;-70
2023/03/24 07:37:25;;;;;;;4.07;3.67;;;15.50;38.30;;;;;;10473446;28;20668;-70
2023/03/24 07:42:28;;;;;;;5.43;3.70;;;15.60;38.00;;;;;;10459947;28;20244;-71
2023/03/24 07:47:33;;;;;;;3.17;2.97;;;15.60;37.90;;;;;;10456557;28;20225;-70
2023/03/24 07:52:36;;;;;;;3.03;2.80;;;15.60;38.10;;;;;;10459663;28;20253;-70
2023/03/24 07:57:41;;;;;;;2.73;2.53;;;15.70;38.00;;;;;;10466792;28;20232;-70
2023/03/24 08:02:47;;;;;;;4.30;3.20;;;15.80;38.50;;;;;;10460088;28;20225;-70
2023/03/24 08:07:53;;;;;;;3.73;3.30;;;15.90;39.00;;;;;;10454638;28;20315;-71
2023/03/24 08:12:57;;;;;;;3.50;3.20;;;16.00;38.60;;;;;;10455168;28;20224;-71
2023/03/24 08:18:02;;;;;;;5.67;3.57;;;16.00;38.60;;;;;;10452665;28;20789;-71
2023/03/24 08:23:07;;;;;;;3.73;3.40;;;16.00;39.20;;;;;;10463016;28;20224;-71
2023/03/24 08:28:10;;;;;;;3.80;3.47;;;16.00;38.50;;;;;;10463366;28;20224;-71
2023/03/24 08:33:16;;;;;;;4.00;3.20;;;16.00;38.60;;;;;;10449526;28;20742;-72
2023/03/24 08:38:29;;;;;;;3.47;3.17;;;16.10;39.40;;;;;;10459827;28;20242;-71
2023/03/24 08:43:34;;;;;;;3.73;3.43;;;16.20;39.00;;;;;;10454472;28;20240;-71
2023/03/24 08:48:39;;;;;;;3.60;3.30;;;16.30;39.40;;;;;;10456898;28;20232;-71
2023/03/24 08:53:43;;;;;;;3.37;3.17;;;16.30;39.40;;;;;;10456984;28;20727;-71
2023/03/24 08:58:47;;;;;;;3.40;3.10;;;16.50;38.90;;;;;;10463643;28;20323;-71
2023/03/24 09:03:52;;;;;;;3.70;3.40;;;16.50;38.70;;;;;;10455061;28;20311;-73
2023/03/24 09:08:55;;;;;;;2.93;2.63;;;16.60;39.10;;;;;;10457398;28;20239;-71
2023/03/24 09:13:58;;;;;;;2.97;2.77;;;16.70;38.60;;;;;;10458459;28;20228;-71
2023/03/24 09:19:04;;;;;;;3.17;2.93;;;16.80;38.50;;;;;;10467304;28;20243;-71
2023/03/24 09:24:07;;;;;;;3.00;2.80;;;16.90;38.80;;;;;;10459195;28;20221;-71
2023/03/24 09:29:10;;;;;;;3.33;3.03;;;17.00;38.80;;;;;;10465458;28;20221;-71
2023/03/24 09:34:15;;;;;;;4.00;3.27;;;17.00;38.80;;;;;;10449900;28;20229;-72
2023/03/24 09:39:18;;;;;;;3.33;3.03;;;17.00;39.40;;;;;;10454289;28;20221;-72
2023/03/24 09:44:27;;;;;;;3.57;3.27;;;17.00;39.00;;;;;;10458053;28;20294;-71
2023/03/24 09:49:38;;;;;;;4.13;3.73;;;17.10;39.50;;;;;;10457793;28;20228;-72
2023/03/24 09:54:49;;;;;;;3.83;3.40;;;17.10;40.80;;;;;;10459572;28;20282;-71
2023/03/24 09:59:53;;;;;;;5.20;3.40;;;17.10;39.80;;;;;;10456444;28;20224;-72
2023/03/24 10:04:58;;;;;;;3.27;3.07;;;17.10;39.10;;;;;;10444495;28;20225;-72
2023/03/24 10:10:02;;;;;;;3.50;3.20;;;17.10;39.80;;;;;;10456987;28;20227;-72
2023/03/24 10:15:16;;;;;;;2.90;2.70;;;17.00;39.30;;;;;;10460745;28;20236;-72
2023/03/24 10:20:46;;;;;;;3.17;2.97;;;17.00;40.30;;;;;;10455830;28;20236;-71
2023/03/24 10:25:54;;;;;;;2.77;2.53;;;17.00;40.50;;;;;;10444124;28;20312;-71
2023/03/24 10:31:03;;;;;;;2.30;2.13;;;16.90;40.90;;;;;;10449978;28;20789;-71
2023/03/24 10:36:11;;;;;;;2.30;2.20;;;16.80;40.60;;;;;;10448675;28;20228;-71
2023/03/24 10:41:18;;;;;;;2.00;1.90;;;16.70;40.60;;;;;;10457529;28;20216;-71
2023/03/24 10:46:24;;;;;;;2.00;1.90;;;16.60;40.50;;;;;;10453426;28;20232;-71
2023/03/24 10:51:33;;;;;;;1.97;1.77;;;16.60;39.90;;;;;;10455020;28;20228;-71
2023/03/24 10:56:41;;;;;;;1.90;1.80;;;16.50;41.20;;;;;;10460103;28;20311;-71
2023/03/24 11:01:45;;;;;;;1.97;1.87;;;16.40;40.90;;;;;;10458991;28;20727;-71
2023/03/24 11:07:05;;;;;;;1.80;1.70;;;16.30;40.40;;;;;;10456550;28;20227;-71
2023/03/24 11:12:22;;;;;;;1.80;1.70;;;16.20;42.20;;;;;;10458520;28;20278;-71
2023/03/24 11:17:26;;;;;;;1.87;1.73;;;16.20;42.50;;;;;;10455772;28;20592;-71
2023/03/24 11:22:30;;;;;;;2.40;2.20;;;16.20;41.00;;;;;;10450469;28;20232;-70
2023/03/24 11:27:41;;;;;;;3.00;2.10;;;16.20;41.60;;;;;;10456744;28;20231;-71
2023/03/24 11:32:48;;;;;;;2.27;2.17;;;16.40;42.50;;;;;;10456246;28;20228;-71
2023/03/24 11:37:53;;;;;;;2.30;2.20;;;16.50;41.70;;;;;;10452460;28;20318;-70
2023/03/24 11:42:59;;;;;;;2.73;2.40;;;16.50;41.70;;;;;;10443951;28;20228;-70
2023/03/24 11:48:10;;;;;;;2.57;2.37;;;16.70;42.00;;;;;;10432155;28;20226;-71
2023/03/24 11:53:19;;;;;;;2.93;2.40;;;16.90;41.80;;;;;;10443337;28;20948;-70
2023/03/24 11:58:31;;;;;;;1.93;1.83;;;17.00;42.00;;;;;;10454112;28;20232;-70
2023/03/24 12:03:57;;;;;;;1.80;1.70;;;17.20;41.50;;;;;;10457295;28;20228;-70
2023/03/24 12:09:22;;;;;;;1.70;1.60;;;17.40;41.80;;;;;;10444703;28;20236;-70
2023/03/24 12:14:33;;;;;;;1.60;1.30;;;17.70;41.60;;;;;;10454799;28;20228;-70
2023/03/24 12:19:56;;;;;;;1.50;1.40;;;18.00;40.60;;;;;;10453000;28;20227;-70
2023/03/24 12:25:22;;;;;;;1.13;1.10;;;18.20;39.10;;;;;;10457072;28;20285;-70
2023/03/24 12:30:33;;;;;;;1.53;1.43;;;18.40;38.30;;;;;;10469564;22;20241;-71
2023/03/24 12:35:56;;;;;;;2.23;1.40;;;18.50;37.70;;;;;;10471860;28;20254;-72
2023/03/24 12:41:31;;;;;;;1.60;1.50;;;18.60;37.30;;;;;;10493108;28;20236;-72
2023/03/24 12:46:44;;;;;;;1.97;1.53;;;18.70;37.50;;;;;;10507597;28;20227;-71
2023/03/24 12:52:02;;;;;;;1.80;1.70;;;18.80;37.00;;;;;;10499354;28;20231;-71
2023/03/24 12:57:11;;;;;;;1.70;1.60;;;18.80;37.10;;;;;;10503513;28;20695;-72
2023/03/24 13:02:23;;;;;;;1.80;1.70;;;18.80;37.10;;;;;;10505691;28;20277;-71
2023/03/24 13:07:27;;;;;;;2.00;1.90;;;18.80;37.00;;;;;;10498205;28;20234;-72
2023/03/24 13:12:39;;;;;;;1.93;1.80;;;18.80;37.30;;;;;;10505856;28;20235;-72
2023/03/24 13:17:48;;;;;;;2.00;1.90;;;18.80;37.00;;;;;;10497969;28;20324;-73
2023/03/24 13:22:52;;;;;;;1.70;1.60;;;18.90;37.10;;;;;;10501430;28;20227;-73
2023/03/24 13:28:00;;;;;;;1.60;1.50;;;19.00;36.70;;;;;;10503891;28;20784;-73
2023/03/24 13:33:11;;;;;;;1.40;1.30;;;19.00;36.30;;;;;;10506244;28;20232;-73
2023/03/24 13:38:19;;;;;;;1.53;1.30;;;19.00;35.80;;;;;;10496568;28;20364;-74
2023/03/24 13:43:26;;;;;;;1.40;1.30;;;19.00;35.60;;;;;;10504110;28;20219;-73
2023/03/24 13:48:37;;;;;;;1.30;1.20;;;19.00;35.60;;;;;;10501260;28;20238;-72
2023/03/24 13:53:46;;;;;;;1.30;1.20;;;19.00;35.60;;;;;;10501098;28;20313;-72
2023/03/24 13:59:18;;;;;;;1.53;1.43;;;19.00;35.60;;;;;;10501950;28;20232;-72
2023/03/24 14:04:28;;;;;;;0.90;0.90;;;19.00;35.60;;;;;;10504176;28;20242;-72
2023/03/24 14:09:32;;;;;;;1.10;1.10;;;19.00;35.40;;;;;;10506762;28;20262;-74
2023/03/24 14:15:15;;;;;;;0.90;0.90;;;19.00;35.60;;;;;;10504871;28;20707;-73
2023/03/24 14:20:28;;;;;;;1.20;1.10;;;19.00;34.50;;;;;;10510005;28;20697;-75
2023/03/24 14:25:35;;;;;;;2.23;1.60;;;19.00;34.60;;;;;;10504167;28;20230;-73
2023/03/24 14:31:12;;;;;;;1.20;1.13;;;18.90;35.10;;;;;;10503110;28;20230;-73
2023/03/24 14:36:22;;;;;;;0.93;0.93;;;18.90;34.20;;;;;;10505257;28;20591;-73
2023/03/24 14:41:30;;;;;;;0.97;0.97;;;18.80;34.40;;;;;;10504866;28;20326;-73
2023/03/24 14:46:40;;;;;;;1.83;1.20;;;18.70;34.80;;;;;;10513546;28;20573;-73
2023/03/24 14:51:47;;;;;;;0.90;0.90;;;18.60;35.30;;;;;;10514640;28;20290;-73
2023/03/24 14:56:53;;;;;;;0.90;0.90;;;18.50;35.20;;;;;;10506538;28;20231;-72
2023/03/24 15:02:03;;;;;;;0.93;0.83;;;18.50;35.20;;;;;;10513264;28;20305;-73
2023/03/24 15:07:12;;;;;;;0.80;0.80;;;18.40;35.10;;;;;;10510008;28;20223;-72
2023/03/24 15:12:15;;;;;;;0.83;0.83;;;18.40;35.10;;;;;;10511572;28;20219;-72
2023/03/24 15:17:22;;;;;;;0.90;0.90;;;18.40;35.10;;;;;;10509403;28;20216;-72
2023/03/24 15:22:26;;;;;;;0.90;0.90;;;18.40;35.10;;;;;;10509834;28;20243;-72
2023/03/24 15:27:32;;;;;;;2.60;1.50;;;18.40;35.10;;;;;;10513215;28;20231;-72
2023/03/24 15:32:39;;;;;;;1.83;1.73;;;18.40;35.10;;;;;;10513054;28;20227;-73
2023/03/24 15:37:47;;;;;;;3.00;1.23;;;18.30;34.90;;;;;;10514790;28;20785;-73
2023/03/24 15:42:50;;;;;;;0.90;0.90;;;18.30;35.00;;;;;;10510318;28;20749;-73
2023/03/24 15:47:56;;;;;;;0.90;0.90;;;18.20;34.90;;;;;;10511259;28;20215;-73
2023/03/24 15:53:02;;;;;;;3.83;0.90;;;18.10;34.80;;;;;;10511625;28;20219;-73
2023/03/24 15:58:21;;;;;;;0.80;0.80;;;18.00;34.70;;;;;;10513816;28;20219;-74
2023/03/24 16:03:28;;;;;;;1.30;1.20;;;17.90;34.70;;;;;;10509653;28;20226;-73
2023/03/24 16:08:37;;;;;;;1.20;1.17;;;17.80;35.20;;;;;;10508838;28;20743;-72
2023/03/24 16:13:43;;;;;;;1.30;1.20;;;17.80;35.00;;;;;;10503292;28;20236;-72
2023/03/24 16:18:48;;;;;;;0.80;0.80;;;17.80;34.70;;;;;;10505499;28;20231;-72
2023/03/24 16:23:53;;;;;;;1.07;1.00;;;17.70;34.70;;;;;;10512787;28;20276;-73
2023/03/24 16:29:08;;;;;;;1.63;0.97;;;17.60;34.70;;;;;;10505943;28;20224;-73
2023/03/24 16:34:13;;;;;;;0.80;0.80;;;17.50;34.80;;;;;;10505730;28;21040;-73
2023/03/24 16:39:17;;;;;;;1.03;0.93;;;17.40;35.10;;;;;;10504761;28;20293;-73
2023/03/24 16:44:21;;;;;;;0.80;0.80;;;17.30;35.30;;;;;;10505529;28;20220;-73
2023/03/24 16:49:26;;;;;;;0.90;0.90;;;17.20;35.40;;;;;;10507438;28;20234;-73
2023/03/24 16:54:29;;;;;;;0.70;0.70;;;17.20;35.60;;;;;;10507412;28;20230;-72
2023/03/24 16:59:32;;;;;;;1.50;1.40;;;17.10;35.60;;;;;;10503167;28;20232;-72
2023/03/24 17:04:37;;;;;;;0.90;0.90;;;17.00;35.70;;;;;;10506923;28;20227;-71
2023/03/24 17:09:40;;;;;;;1.57;1.47;;;16.90;35.90;;;;;;10504978;28;20251;-71
2023/03/24 17:14:43;;;;;;;3.57;2.63;;;16.90;36.00;;;;;;10507807;28;20232;-71
2023/03/24 17:19:49;;;;;;;3.30;2.43;;;16.80;35.80;;;;;;10506181;28;20227;-71
2023/03/24 17:24:56;;;;;;;1.13;1.13;;;16.80;36.00;;;;;;10505033;28;20227;-71
2023/03/24 17:30:00;;;;;;;1.07;0.97;;;16.70;35.90;;;;;;10505715;28;20695;-71
2023/03/24 17:35:10;;;;;;;1.10;1.00;;;16.60;36.00;;;;;;10502023;28;20743;-71
2023/03/24 17:40:14;;;;;;;1.50;0.87;;;16.50;36.40;;;;;;10507048;28;20615;-71
2023/03/24 17:45:19;;;;;;;0.90;0.90;;;16.50;36.30;;;;;;10509433;28;20776;-71
2023/03/24 17:50:24;;;;;;;0.80;0.80;;;16.40;36.40;;;;;;10504157;28;20231;-71
2023/03/24 17:55:27;;;;;;;0.90;0.90;;;16.40;36.40;;;;;;10506522;28;20231;-71
2023/03/24 18:00:31;;;;;;;0.90;0.90;;;16.40;36.50;;;;;;10508469;28;20235;-71
2023/03/24 18:05:35;;;;;;;0.93;0.93;;;16.40;36.50;;;;;;10503916;28;20235;-71
2023/03/24 18:10:39;;;;;;;1.00;1.00;;;16.40;36.60;;;;;;10501634;28;20864;-71
2023/03/24 18:15:43;;;;;;;0.97;0.97;;;16.30;36.50;;;;;;10504867;28;20232;-71
2023/03/24 18:20:48;;;;;;;1.40;1.10;;;16.30;36.70;;;;;;10500430;28;20232;-71
2023/03/24 18:25:58;;;;;;;1.20;1.10;;;16.20;37.00;;;;;;10502347;28;20718;-71
2023/03/24 18:31:01;;;;;;;0.90;0.90;;;16.10;37.20;;;;;;10476193;22;20213;-75
2023/03/24 18:36:09;;;;;;;1.10;1.10;;;16.10;36.80;;;;;;10445910;28;20237;-80
2023/03/24 18:41:13;;;;;;;1.03;1.03;;;16.10;37.10;;;;;;10447480;28;20306;-78
2023/03/24 18:46:16;;;;;;;1.20;1.00;;;16.10;36.90;;;;;;10454146;28;20224;-78
2023/03/24 18:51:21;;;;;;;1.30;1.20;;;16.00;36.80;;;;;;10461422;28;20631;-80
2023/03/24 18:56:25;;;;;;;1.30;1.20;;;16.00;37.00;;;;;;10476866;28;20239;-79
2023/03/24 19:01:31;;;;;;;2.80;1.80;;;16.00;36.90;;;;;;10477773;28;20223;-78
2023/03/24 19:06:41;;;;;;;1.60;1.50;;;16.00;36.90;;;;;;10480082;28;20237;-79
2023/03/24 19:11:46;;;;;;;2.00;1.90;;;16.00;37.00;;;;;;10485920;28;20220;-74
2023/03/24 19:16:49;;;;;;;2.50;1.40;;;16.00;37.20;;;;;;10457571;28;20243;-76
2023/03/24 19:21:59;;;;;;;1.30;1.20;;;15.90;36.80;;;;;;10451143;28;20700;-76
2023/03/24 19:27:12;;;;;;;1.40;1.30;;;15.80;36.90;;;;;;10460706;28;20687;-76
2023/03/24 19:32:31;;;;;;;1.43;1.33;;;15.80;37.20;;;;;;10428348;28;20230;-79
2023/03/24 19:37:36;;;;;;;1.50;1.40;;;15.70;37.00;;;;;;10465124;28;20619;-79
2023/03/24 19:42:40;;;;;;;1.30;1.20;;;15.70;37.00;;;;;;10467116;28;20729;-79
2023/03/24 19:47:46;;;;;;;1.67;1.50;;;15.60;37.00;;;;;;10461759;28;20736;-80
2023/03/24 19:52:56;;;;;;;2.90;2.60;;;15.50;36.90;;;;;;10476879;28;20766;-74
2023/03/24 19:58:14;;;;;;;4.73;3.03;;;15.50;37.20;;;;;;10450670;28;20220;-75
2023/03/24 20:03:19;;;;;;;7.03;5.70;;;15.40;37.40;;;;;;10442968;28;20299;-76
2023/03/24 20:08:26;;;;;;;4.07;3.67;;;15.30;37.00;;;;;;10454219;28;20221;-76
2023/03/24 20:13:29;;;;;;;2.80;2.27;;;15.20;37.20;;;;;;10446014;28;20236;-72
2023/03/24 20:18:35;;;;;;;1.50;1.40;;;15.10;37.00;;;;;;10450124;28;20224;-74
2023/03/24 20:23:39;;;;;;;1.70;1.60;;;14.90;37.00;;;;;;10442137;28;20238;-74
2023/03/24 20:28:43;;;;;;;2.20;1.30;;;14.90;37.30;;;;;;10459003;28;21026;-74
2023/03/24 20:33:46;;;;;;;1.30;1.30;;;14.70;37.00;;;;;;10469907;28;20238;-75
2023/03/24 20:38:51;;;;;;;1.30;1.20;;;14.60;36.90;;;;;;10461856;28;20228;-75
2023/03/24 20:43:54;;;;;;;1.40;1.30;;;14.60;37.20;;;;;;10460934;28;20258;-76
2023/03/24 20:48:57;;;;;;;2.63;1.30;;;14.60;37.10;;;;;;10457202;28;20228;-74
2023/03/24 20:54:03;;;;;;;1.30;1.20;;;14.50;36.90;;;;;;10479469;28;20229;-78
2023/03/24 20:59:06;;;;;;;1.93;1.30;;;14.50;36.90;;;;;;10478069;28;20290;-78
2023/03/24 21:04:10;;;;;;;1.40;1.30;;;14.40;36.80;;;;;;10468369;28;20234;-71
2023/03/24 21:09:15;;;;;;;1.23;1.13;;;14.40;36.80;;;;;;10438379;28;20235;-71
2023/03/24 21:14:19;;;;;;;2.43;1.23;;;14.30;36.80;;;;;;10457554;28;20733;-77
2023/03/24 21:19:23;;;;;;;1.40;1.30;;;14.20;36.70;;;;;;10472474;28;20255;-74
2023/03/24 21:24:27;;;;;;;1.40;1.30;;;14.20;36.80;;;;;;10452327;28;20232;-75
2023/03/24 21:29:35;;;;;;;1.70;1.60;;;14.10;36.80;;;;;;10470632;28;20259;-77
2023/03/24 21:34:38;;;;;;;1.63;1.40;;;14.10;36.70;;;;;;10451612;28;20635;-78
2023/03/24 21:39:43;;;;;;;1.50;1.40;;;14.10;36.60;;;;;;10449611;28;20414;-76
2023/03/24 21:44:46;;;;;;;1.20;1.10;;;14.00;36.70;;;;;;10451466;28;20236;-75
2023/03/24 21:49:52;;;;;;;1.57;1.40;;;13.90;36.60;;;;;;10450812;28;20220;-75
2023/03/24 21:54:59;;;;;;;1.40;1.30;;;13.80;36.70;;;;;;10446879;28;20232;-78
2023/03/24 22:00:09;;;;;;;1.77;1.60;;;13.70;36.90;;;;;;10445620;28;20370;-77
2023/03/24 22:05:12;;;;;;;1.20;1.10;;;13.60;36.80;;;;;;10451521;28;20274;-78
2023/03/24 22:10:23;;;;;;;1.20;1.10;;;13.50;36.80;;;;;;10462471;28;20228;-78
2023/03/24 22:15:26;;;;;;;1.67;1.30;;;13.50;37.00;;;;;;10453556;28;20791;-78
2023/03/24 22:20:36;;;;;;;1.40;1.30;;;13.50;36.80;;;;;;10450253;28;20628;-78
2023/03/24 22:25:41;;;;;;;1.20;1.10;;;13.50;36.80;;;;;;10464076;28;20232;-78
2023/03/24 22:30:44;;;;;;;1.30;1.20;;;13.50;37.00;;;;;;10466556;28;20812;-79
2023/03/24 22:35:47;;;;;;;1.73;1.30;;;13.50;36.80;;;;;;10467878;28;20303;-78
2023/03/24 22:40:56;;;;;;;1.13;1.07;;;13.40;36.80;;;;;;10458032;28;20766;-78
2023/03/24 22:45:59;;;;;;;1.10;1.00;;;13.40;36.90;;;;;;10467617;28;20238;-78
2023/03/24 22:51:02;;;;;;;1.47;1.37;;;13.40;36.90;;;;;;10470370;28;20491;-78
2023/03/24 22:56:08;;;;;;;1.07;1.00;;;13.40;36.90;;;;;;10470353;28;20236;-78
2023/03/24 23:01:11;;;;;;;1.10;1.00;;;13.40;36.90;;;;;;10469356;28;20235;-78
2023/03/24 23:06:15;;;;;;;1.40;1.30;;;13.40;36.90;;;;;;10473904;28;20247;-78
2023/03/24 23:11:19;;;;;;;1.33;1.20;;;13.40;36.90;;;;;;10464053;28;20231;-78
2023/03/24 23:16:22;;;;;;;1.03;0.93;;;13.40;36.90;;;;;;10467640;28;20232;-78
2023/03/24 23:21:27;;;;;;;1.83;1.30;;;13.40;36.80;;;;;;10465503;28;20976;-78
2023/03/24 23:26:31;;;;;;;1.40;1.30;;;13.40;36.80;;;;;;10462685;28;20232;-79
2023/03/24 23:31:35;;;;;;;1.43;1.33;;;13.40;36.90;;;;;;10465737;28;20224;-72
2023/03/24 23:36:43;;;;;;;2.57;1.40;;;13.30;36.80;;;;;;10461191;28;20225;-72
2023/03/24 23:41:48;;;;;;;1.67;1.30;;;13.30;36.80;;;;;;10455241;28;20999;-72
2023/03/24 23:46:51;;;;;;;1.40;1.30;;;13.20;36.70;;;;;;10460619;28;20234;-72
2023/03/24 23:51:54;;;;;;;1.40;1.30;;;13.20;36.70;;;;;;10460268;28;20229;-72
2023/03/24 23:56:59;;;;;;;1.30;1.20;;;13.20;36.70;;;;;;10466431;28;20281;-72
